Lulu Pass Weather Station

This weather station provides temperature, relative humidity (RH), wind speed, gust or max wind speed, and wind direction at 10014ft near Lulu Pass at the head of Fisher Creek. This data can be used with temperature and precipitation data from the Fisher Creek SNOTEL site.

This weather station was purchased by the Friends of the Avalanche Center.

If the data has not been updated recently you can view it directly on datagarrison.com

Elevation
10014ft
Jump to table bottom
Date Time Temperature
deg F
RH, % Wind Speed Wind Gust Wind Direction
04/11/19 08:07 11.9 95 16 20 NW - 326
04/11/19 07:07 10.4 95 15 19 N - 341
04/11/19 06:07 9.3 94 16 20 NW - 334
04/11/19 05:07 8.8 94 17 20 N - 344
04/11/19 04:07 8.8 94 17 21 N - 348
04/11/19 03:07 8.2 94 17 20 N - 352
04/11/19 02:07 7.9 93 15 20 N - 354
04/11/19 01:07 6.3 93 9 19 N - 6
04/11/19 00:07 8.8 93 7 10 N - 14
04/10/19 23:07 7.2 94 6 11 N - 351
04/10/19 22:07 8.0 95 5 9 N - 355
04/10/19 21:07 9.9 95 5 11 NW - 317
04/10/19 20:07 10.4 95 9 14 NW - 333
04/10/19 19:07 10.9 96 11 17 NW - 330
04/10/19 18:07 12.8 97 11 16 N - 350
04/10/19 17:07 14.9 96 8 13 NE - 38
04/10/19 16:07 17.1 96 7 18 NE - 53
04/10/19 15:07 16.9 96 8 26 NE - 60
04/10/19 14:07 17.8 97 6 17 NE - 48
04/10/19 13:07 22.5 98 9 16 NW - 337
04/10/19 12:07 18.9 98 11 18 NW - 326
04/10/19 11:07 17.7 97 11 17 NW - 321
04/10/19 10:07 16.3 97 18 28 NW - 333
04/10/19 09:07 15.6 97 17 23 NW - 320
04/10/19 08:07 16.3 97 15 23 NW - 317
04/10/19 07:07 16.8 98 21 34 NW - 327
04/10/19 06:07 17.4 98 22 31 NW - 334
04/10/19 05:07 17.5 98 16 21 N - 340
04/10/19 04:07 17.8 98 17 23 N - 344
04/10/19 03:07 18.3 98 14 21 NW - 337
04/10/19 02:07 18.8 98 11 15 NW - 330
04/10/19 01:07 19.0 98 11 14 NW - 333
04/10/19 00:07 19.3 99 12 14 NW - 333
04/09/19 23:07 19.6 99 13 20 NW - 329
04/09/19 22:07 19.8 99 20 25 N - 345
04/09/19 21:07 21.3 99 15 20 NW - 334
04/09/19 20:07 21.7 100 13 18 NW - 314
04/09/19 19:07 23.9 100 9 17 NW - 314
04/09/19 18:07 23.8 99 10 22 W - 263
04/09/19 17:07 24.9 99 8 17 SW - 236
04/09/19 16:07 25.7 99 11 22 SW - 204
04/09/19 15:07 25.1 99 9 20 SW - 237
04/09/19 14:07 25.3 100 10 24 SW - 244
04/09/19 13:07 28.6 100 9 16 SW - 220
04/09/19 12:07 29.0 100 8 15 SW - 212
04/09/19 11:07 28.4 100 8 17 W - 268
04/09/19 10:07 27.2 100 10 17 NW - 303
04/09/19 09:07 26.7 100 19 35 NW - 324
04/09/19 08:07 29.3 100 17 38 SW - 218
04/09/19 07:07 29.3 100 11 24 SW - 220